createdAt,value
2022-07-29T00:00:17.905Z,19.52
2022-07-29T00:06:59.965Z,19.55
2022-07-29T00:17:20.893Z,19.51
2022-07-29T00:20:43.948Z,19.45
2022-07-29T00:23:56.103Z,19.41
2022-07-29T00:27:08.976Z,19.34
2022-07-29T00:30:22.873Z,19.27
2022-07-29T00:33:34.926Z,19.20
2022-07-29T00:36:45.554Z,19.13
2022-07-29T00:39:57.916Z,19.05
2022-07-29T00:43:20.503Z,18.99
2022-07-29T00:46:43.598Z,18.92
2022-07-29T00:49:54.875Z,18.86
2022-07-29T00:53:23.955Z,18.81
2022-07-29T00:56:53.850Z,18.77
2022-07-29T01:00:09.875Z,18.74
2022-07-29T01:06:54.802Z,18.70
2022-07-29T01:10:08.870Z,18.67
2022-07-29T01:17:01.619Z,18.69
2022-07-29T01:20:13.875Z,18.68
2022-07-29T01:26:54.573Z,18.73
2022-07-29T01:37:22.815Z,18.42
2022-07-29T01:44:10.856Z,18.34
2022-07-29T01:47:23.846Z,18.30
2022-07-29T01:51:04.620Z,18.22
2022-07-29T01:54:27.336Z,18.18
2022-07-29T01:57:39.895Z,18.15
2022-07-29T02:04:30.016Z,17.99
2022-07-29T02:07:46.811Z,17.95
2022-07-29T02:14:40.646Z,17.95
2022-07-29T02:17:52.900Z,17.98
2022-07-29T02:24:41.922Z,18.11
2022-07-29T02:31:23.504Z,18.13
2022-07-29T02:38:23.994Z,18.07
2022-07-29T02:41:49.622Z,18.11
2022-07-29T02:45:04.925Z,18.16
2022-07-29T02:48:46.386Z,18.16
2022-07-29T02:55:39.590Z,18.02
2022-07-29T02:58:48.912Z,17.93
2022-07-29T03:06:00.854Z,17.81
2022-07-29T03:09:18.883Z,17.79
2022-07-29T03:12:59.375Z,17.74
2022-07-29T03:16:23.618Z,17.71
2022-07-29T03:23:45.410Z,17.83
2022-07-29T03:34:04.843Z,18.16
2022-07-29T03:37:20.801Z,18.27
2022-07-29T03:40:34.875Z,18.39
2022-07-29T03:50:25.815Z,18.60
2022-07-29T03:53:44.788Z,18.64
2022-07-29T04:06:44.814Z,18.69
2022-07-29T04:10:00.827Z,18.70
2022-07-29T04:20:27.788Z,18.61
2022-07-29T04:26:58.839Z,18.57
2022-07-29T04:30:16.787Z,18.53
2022-07-29T04:33:50.828Z,18.56
2022-07-29T04:37:22.869Z,18.65
2022-07-29T04:40:49.758Z,18.72
2022-07-29T04:47:52.166Z,18.88
2022-07-29T04:51:05.919Z,19.09
2022-07-29T04:54:22.852Z,19.27
2022-07-29T04:57:36.893Z,19.35
2022-07-29T05:04:11.838Z,19.39
2022-07-29T05:18:21.219Z,19.54
2022-07-29T05:21:34.793Z,19.72
2022-07-29T05:24:42.744Z,19.89
2022-07-29T05:31:16.866Z,20.03
2022-07-29T05:34:27.789Z,20.02
2022-07-29T05:37:54.709Z,20.07
2022-07-29T05:41:13.238Z,20.18
2022-07-29T05:44:40.210Z,20.25
2022-07-29T05:48:07.314Z,20.37
2022-07-29T05:58:58.851Z,20.80
2022-07-29T06:05:42.468Z,21.01
2022-07-29T06:09:00.772Z,21.11
2022-07-29T06:12:40.239Z,21.24
2022-07-29T06:15:57.558Z,21.16
2022-07-29T06:45:25.090Z,22.56
2022-07-29T06:51:54.687Z,22.86
2022-07-29T06:54:32.761Z,22.92
2022-07-29T06:57:00.801Z,22.97
2022-07-29T06:59:35.549Z,23.04
2022-07-29T07:02:05.451Z,23.11
2022-07-29T07:04:34.360Z,23.20
2022-07-29T07:07:02.529Z,23.25
2022-07-29T07:09:40.619Z,23.25
2022-07-29T07:12:10.257Z,23.21
2022-07-29T07:14:38.308Z,23.34
2022-07-29T07:17:08.061Z,23.45
2022-07-29T07:19:38.363Z,23.47
2022-07-29T07:22:06.375Z,23.47
2022-07-29T07:24:34.292Z,23.59
2022-07-29T07:27:02.860Z,23.76
2022-07-29T07:29:30.820Z,23.89
2022-07-29T07:32:01.226Z,23.99
2022-07-29T07:34:31.083Z,24.06
2022-07-29T07:36:59.528Z,24.10
2022-07-29T07:39:27.469Z,24.29
2022-07-29T07:41:55.623Z,24.46
2022-07-29T07:44:23.994Z,24.64
2022-07-29T07:46:52.320Z,24.71
2022-07-29T07:49:25.050Z,24.80
2022-07-29T07:51:57.224Z,24.89
2022-07-29T07:54:25.381Z,24.94
2022-07-29T07:56:54.207Z,24.94
2022-07-29T07:59:22.482Z,25.00
2022-07-29T08:01:55.510Z,25.01
2022-07-29T08:04:29.066Z,25.12
2022-07-29T08:07:05.598Z,25.08
2022-07-29T08:09:36.883Z,25.18
2022-07-29T08:19:22.980Z,25.61
2022-07-29T08:22:02.432Z,25.66
2022-07-29T08:24:49.811Z,25.87
2022-07-29T08:27:42.541Z,26.10
2022-07-29T08:30:40.078Z,26.32
2022-07-29T08:33:51.441Z,26.52
2022-07-29T08:36:30.734Z,26.55
2022-07-29T08:39:04.857Z,26.48
2022-07-29T08:41:33.895Z,26.38
2022-07-29T08:44:03.148Z,26.30
2022-07-29T08:46:41.909Z,26.33
2022-07-29T08:49:55.512Z,26.33
2022-07-29T09:01:14.902Z,27.13
2022-07-29T09:05:00.348Z,27.26
2022-07-29T09:08:50.848Z,27.54
2022-07-29T09:12:28.947Z,27.73
2022-07-29T09:16:11.467Z,27.86
2022-07-29T09:20:57.439Z,27.68
2022-07-29T09:22:42.369Z,27.88
2022-07-29T09:25:39.445Z,27.80
2022-07-29T09:28:20.285Z,27.99
2022-07-29T09:31:01.595Z,27.96
2022-07-29T09:33:41.512Z,28.08
2022-07-29T09:40:28.136Z,28.16
2022-07-29T09:44:22.208Z,28.29
2022-07-29T09:47:12.423Z,28.46
2022-07-29T09:49:59.672Z,28.73
2022-07-29T09:52:31.406Z,28.94
2022-07-29T09:55:08.182Z,28.86
2022-07-29T09:57:40.266Z,28.87
2022-07-29T10:00:19.006Z,29.06
2022-07-29T10:02:48.730Z,29.30
2022-07-29T10:05:23.834Z,29.64
2022-07-29T10:07:57.559Z,29.91
2022-07-29T10:10:31.725Z,29.94
2022-07-29T10:13:08.940Z,29.78
2022-07-29T10:16:01.871Z,29.50
2022-07-29T10:18:49.936Z,29.73
2022-07-29T10:21:36.240Z,29.98
2022-07-29T10:24:27.314Z,30.11
2022-07-29T10:27:02.114Z,30.47
2022-07-29T10:29:32.914Z,30.74
2022-07-29T10:32:22.944Z,30.83
2022-07-29T10:35:19.673Z,30.64
2022-07-29T10:38:07.677Z,30.27
2022-07-29T10:41:20.087Z,30.05
2022-07-29T10:44:17.442Z,29.85
2022-07-29T10:47:49.262Z,29.57
2022-07-29T10:58:56.655Z,29.47
2022-07-29T11:02:42.053Z,29.34
2022-07-29T11:05:59.873Z,29.38
2022-07-29T11:09:00.059Z,29.46
2022-07-29T11:17:26.295Z,29.44
2022-07-29T11:20:08.488Z,29.36
2022-07-29T11:31:00.507Z,28.79
2022-07-29T11:35:00.604Z,28.65
2022-07-29T11:38:27.810Z,28.54
2022-07-29T11:42:13.523Z,28.45
2022-07-29T11:45:45.442Z,28.33
2022-07-29T11:49:15.289Z,28.18
2022-07-29T11:52:22.978Z,28.09
2022-07-29T11:55:10.311Z,27.97
2022-07-29T11:58:03.982Z,27.88
2022-07-29T12:02:18.026Z,27.78
2022-07-29T12:05:36.316Z,27.60
2022-07-29T12:08:55.592Z,27.52
2022-07-29T12:11:37.655Z,27.37
2022-07-29T12:14:08.812Z,27.26
2022-07-29T12:24:49.337Z,26.54
2022-07-29T12:31:42.251Z,25.83
2022-07-29T12:35:27.069Z,25.45
2022-07-29T12:42:18.483Z,25.07
2022-07-29T12:45:40.182Z,24.98
2022-07-29T12:49:11.953Z,24.89
2022-07-29T12:52:42.834Z,24.77
2022-07-29T13:03:25.979Z,23.86
2022-07-29T13:06:04.888Z,23.55
2022-07-29T13:12:44.809Z,22.99
2022-07-29T13:16:05.396Z,22.79
2022-07-29T13:19:19.806Z,22.63
2022-07-29T13:22:26.787Z,22.55
2022-07-29T13:25:35.150Z,22.51
2022-07-29T13:28:32.809Z,22.51
2022-07-29T13:31:43.370Z,22.48
2022-07-29T13:34:30.363Z,22.41
2022-07-29T13:38:53.015Z,22.36
2022-07-29T13:40:58.586Z,22.31
2022-07-29T13:44:20.649Z,22.28
2022-07-29T13:47:49.175Z,22.24
2022-07-29T13:54:28.597Z,22.06
2022-07-29T14:07:46.860Z,21.34
2022-07-29T14:12:01.552Z,21.10
2022-07-29T14:27:43.713Z,20.27
2022-07-29T14:39:42.641Z,20.38
2022-07-29T15:03:04.933Z,20.66
2022-07-29T15:10:04.268Z,20.59
2022-07-29T15:51:49.116Z,22.83
2022-07-29T16:05:51.085Z,25.28
2022-07-29T16:16:54.177Z,24.91
2022-07-29T16:20:26.583Z,24.66
2022-07-29T16:32:30.124Z,26.55
2022-07-29T17:39:12.215Z,23.60
2022-07-29T17:42:13.284Z,23.66
2022-07-29T18:03:12.436Z,23.15
2022-07-29T18:15:23.922Z,22.35
2022-07-29T18:18:47.711Z,22.34
2022-07-29T18:28:59.956Z,22.28
2022-07-29T18:38:01.010Z,22.10
2022-07-29T18:41:11.466Z,22.08
2022-07-29T18:48:14.265Z,21.95
2022-07-29T19:08:42.827Z,21.35
2022-07-29T19:24:52.369Z,20.92
2022-07-29T19:28:12.372Z,20.92
2022-07-29T19:34:46.507Z,20.90
2022-07-29T19:41:35.224Z,20.92
2022-07-29T19:45:32.050Z,20.92
2022-07-29T19:48:50.888Z,20.92
2022-07-29T19:59:08.669Z,20.92
2022-07-29T20:02:24.997Z,20.80
2022-07-29T20:09:42.788Z,20.58
2022-07-29T20:16:51.905Z,20.37
2022-07-29T20:20:31.291Z,20.28
2022-07-29T20:31:13.369Z,20.11
2022-07-29T20:38:01.051Z,20.08
2022-07-29T20:40:30.029Z,20.06
2022-07-29T20:43:06.045Z,20.08
2022-07-29T20:45:51.814Z,20.11
2022-07-29T20:48:41.054Z,20.11
2022-07-29T20:51:43.286Z,20.12
2022-07-29T20:54:15.840Z,20.15
2022-07-29T20:56:44.037Z,20.17
2022-07-29T20:59:11.991Z,20.17
2022-07-29T21:01:39.968Z,20.15
2022-07-29T21:04:07.943Z,20.14
2022-07-29T21:06:36.446Z,20.10
2022-07-29T21:09:04.563Z,20.07
2022-07-29T21:11:44.110Z,19.96
2022-07-29T21:14:31.377Z,19.93
2022-07-29T21:16:59.588Z,19.90
2022-07-29T21:19:27.875Z,19.88
2022-07-29T21:21:55.747Z,19.87
2022-07-29T21:24:23.836Z,19.86
2022-07-29T21:27:18.393Z,19.88
2022-07-29T21:29:39.691Z,19.90
2022-07-29T21:32:07.669Z,19.92
2022-07-29T21:34:35.620Z,19.95
2022-07-29T21:37:04.452Z,19.98
2022-07-29T21:39:35.381Z,19.96
2022-07-29T21:42:03.334Z,19.96
2022-07-29T21:44:31.324Z,19.98
2022-07-29T21:47:01.435Z,20.02
2022-07-29T21:49:29.944Z,20.05
2022-07-29T21:51:57.916Z,20.10
2022-07-29T21:54:26.055Z,20.14
2022-07-29T21:56:56.087Z,20.15
2022-07-29T21:59:25.857Z,20.15
2022-07-29T22:01:53.953Z,20.15
2022-07-29T22:04:22.180Z,20.14
2022-07-29T22:06:50.201Z,20.12
2022-07-29T22:09:18.114Z,20.09
2022-07-29T22:11:47.775Z,20.05
2022-07-29T22:14:17.636Z,20.02
2022-07-29T22:16:46.478Z,20.01
2022-07-29T22:19:15.748Z,19.99
2022-07-29T22:21:44.281Z,19.93
2022-07-29T22:24:12.174Z,19.87
2022-07-29T22:26:40.134Z,19.83
2022-07-29T22:29:08.028Z,19.77
2022-07-29T22:31:36.027Z,19.75
2022-07-29T22:34:04.493Z,19.76
2022-07-29T22:36:32.582Z,19.77
2022-07-29T22:39:00.454Z,19.78
2022-07-29T22:41:28.355Z,19.80
2022-07-29T22:43:56.293Z,19.80
2022-07-29T22:46:24.402Z,19.80
2022-07-29T22:48:52.438Z,19.72
2022-07-29T22:51:20.617Z,19.76
2022-07-29T22:53:48.797Z,19.80
2022-07-29T22:56:17.858Z,19.87
2022-07-29T22:58:45.874Z,19.91
2022-07-29T23:01:14.228Z,19.92
2022-07-29T23:03:50.836Z,19.92
2022-07-29T23:06:19.519Z,19.91
2022-07-29T23:08:47.354Z,19.89
2022-07-29T23:11:16.236Z,19.86
2022-07-29T23:13:44.182Z,19.82
2022-07-29T23:16:12.051Z,19.80
2022-07-29T23:18:39.940Z,19.76
2022-07-29T23:21:08.054Z,19.73
2022-07-29T23:23:36.037Z,19.68
2022-07-29T23:26:03.965Z,19.67
2022-07-29T23:28:31.928Z,19.67
2022-07-29T23:31:00.252Z,19.68
2022-07-29T23:33:28.210Z,19.71
2022-07-29T23:35:56.293Z,19.73
2022-07-29T23:38:24.112Z,19.74
2022-07-29T23:40:51.961Z,19.76
2022-07-29T23:43:19.861Z,19.79
2022-07-29T23:45:48.793Z,19.82
2022-07-29T23:48:16.973Z,19.86
2022-07-29T23:50:45.217Z,19.89
2022-07-29T23:53:13.083Z,19.88
2022-07-29T23:55:40.954Z,19.87
2022-07-29T23:58:08.895Z,19.87
